sensor_id;sensor_type;location;lat;lon;timestamp;P1;durP1;ratioP1;P2;durP2;ratioP2
419;SDS011;42600;54.408;13.016;2023-08-20T00:02:01;10.80;;;3.20;;
419;SDS011;42600;54.408;13.016;2023-08-20T00:04:31;6.83;;;1.90;;
419;SDS011;42600;54.408;13.016;2023-08-20T00:07:02;12.80;;;3.03;;
419;SDS011;42600;54.408;13.016;2023-08-20T00:09:29;7.67;;;3.90;;
419;SDS011;42600;54.408;13.016;2023-08-20T00:11:56;7.33;;;3.10;;
419;SDS011;42600;54.408;13.016;2023-08-20T00:14:51;31.33;;;4.70;;
419;SDS011;42600;54.408;13.016;2023-08-20T00:17:18;18.67;;;3.70;;
419;SDS011;42600;54.408;13.016;2023-08-20T00:19:45;26.40;;;4.50;;
419;SDS011;42600;54.408;13.016;2023-08-20T00:22:14;11.20;;;4.40;;
419;SDS011;42600;54.408;13.016;2023-08-20T00:24:41;8.03;;;3.23;;
419;SDS011;42600;54.408;13.016;2023-08-20T00:27:08;10.00;;;3.00;;
419;SDS011;42600;54.408;13.016;2023-08-20T00:29:36;13.17;;;2.70;;
419;SDS011;42600;54.408;13.016;2023-08-20T00:32:03;7.83;;;2.90;;
419;SDS011;42600;54.408;13.016;2023-08-20T00:34:30;16.40;;;5.73;;
419;SDS011;42600;54.408;13.016;2023-08-20T00:36:56;8.00;;;3.20;;
419;SDS011;42600;54.408;13.016;2023-08-20T00:39:23;8.77;;;2.77;;
419;SDS011;42600;54.408;13.016;2023-08-20T00:41:49;8.30;;;3.20;;
419;SDS011;42600;54.408;13.016;2023-08-20T00:44:16;5.73;;;2.40;;
419;SDS011;42600;54.408;13.016;2023-08-20T00:46:44;8.50;;;3.73;;
419;SDS011;42600;54.408;13.016;2023-08-20T00:49:11;8.47;;;2.97;;
419;SDS011;42600;54.408;13.016;2023-08-20T00:51:37;3.33;;;2.53;;
419;SDS011;42600;54.408;13.016;2023-08-20T00:54:04;5.33;;;2.47;;
419;SDS011;42600;54.408;13.016;2023-08-20T00:56:31;6.53;;;2.90;;
419;SDS011;42600;54.408;13.016;2023-08-20T00:58:58;4.80;;;2.27;;
419;SDS011;42600;54.408;13.016;2023-08-20T01:01:25;3.53;;;2.27;;
419;SDS011;42600;54.408;13.016;2023-08-20T01:03:53;4.57;;;3.00;;
419;SDS011;42600;54.408;13.016;2023-08-20T01:06:20;3.33;;;1.60;;
419;SDS011;42600;54.408;13.016;2023-08-20T01:09:05;8.43;;;2.70;;
419;SDS011;42600;54.408;13.016;2023-08-20T01:11:41;10.93;;;2.83;;
419;SDS011;42600;54.408;13.016;2023-08-20T01:14:14;3.03;;;1.97;;
419;SDS011;42600;54.408;13.016;2023-08-20T01:16:41;5.07;;;2.00;;
419;SDS011;42600;54.408;13.016;2023-08-20T01:19:10;5.47;;;2.30;;
419;SDS011;42600;54.408;13.016;2023-08-20T01:21:43;7.17;;;2.60;;
419;SDS011;42600;54.408;13.016;2023-08-20T01:24:23;4.60;;;2.30;;
419;SDS011;42600;54.408;13.016;2023-08-20T01:27:10;3.07;;;2.30;;
419;SDS011;42600;54.408;13.016;2023-08-20T01:29:52;3.73;;;2.30;;
419;SDS011;42600;54.408;13.016;2023-08-20T01:32:20;5.23;;;2.43;;
419;SDS011;42600;54.408;13.016;2023-08-20T01:34:48;8.20;;;3.20;;
419;SDS011;42600;54.408;13.016;2023-08-20T01:37:15;5.83;;;2.97;;
419;SDS011;42600;54.408;13.016;2023-08-20T01:39:42;6.93;;;2.70;;
419;SDS011;42600;54.408;13.016;2023-08-20T01:42:08;4.03;;;2.40;;
419;SDS011;42600;54.408;13.016;2023-08-20T01:44:35;4.53;;;2.50;;
419;SDS011;42600;54.408;13.016;2023-08-20T01:47:03;7.47;;;2.83;;
419;SDS011;42600;54.408;13.016;2023-08-20T01:49:30;5.57;;;2.40;;
419;SDS011;42600;54.408;13.016;2023-08-20T01:51:56;4.80;;;2.37;;
419;SDS011;42600;54.408;13.016;2023-08-20T01:54:23;7.77;;;2.40;;
419;SDS011;42600;54.408;13.016;2023-08-20T01:56:50;6.57;;;2.30;;
419;SDS011;42600;54.408;13.016;2023-08-20T01:59:16;5.57;;;2.67;;
419;SDS011;42600;54.408;13.016;2023-08-20T02:01:43;8.10;;;2.93;;
419;SDS011;42600;54.408;13.016;2023-08-20T02:04:11;17.70;;;2.47;;
419;SDS011;42600;54.408;13.016;2023-08-20T02:06:38;5.23;;;2.43;;
419;SDS011;42600;54.408;13.016;2023-08-20T02:09:04;6.20;;;3.13;;
419;SDS011;42600;54.408;13.016;2023-08-20T02:11:31;10.33;;;2.17;;
419;SDS011;42600;54.408;13.016;2023-08-20T02:14:00;5.70;;;3.07;;
419;SDS011;42600;54.408;13.016;2023-08-20T02:16:27;6.40;;;2.43;;
419;SDS011;42600;54.408;13.016;2023-08-20T02:18:54;9.60;;;3.80;;
419;SDS011;42600;54.408;13.016;2023-08-20T02:21:21;6.97;;;2.33;;
419;SDS011;42600;54.408;13.016;2023-08-20T02:23:48;5.57;;;2.70;;
419;SDS011;42600;54.408;13.016;2023-08-20T02:26:15;4.63;;;3.00;;
419;SDS011;42600;54.408;13.016;2023-08-20T02:28:41;7.67;;;3.80;;
419;SDS011;42600;54.408;13.016;2023-08-20T02:31:08;5.27;;;2.03;;
419;SDS011;42600;54.408;13.016;2023-08-20T02:33:34;4.67;;;1.60;;
419;SDS011;42600;54.408;13.016;2023-08-20T02:36:01;3.27;;;2.00;;
419;SDS011;42600;54.408;13.016;2023-08-20T02:38:30;10.23;;;1.60;;
419;SDS011;42600;54.408;13.016;2023-08-20T02:40:57;3.33;;;1.70;;
419;SDS011;42600;54.408;13.016;2023-08-20T02:43:23;3.83;;;2.13;;
419;SDS011;42600;54.408;13.016;2023-08-20T02:45:50;4.40;;;2.30;;
419;SDS011;42600;54.408;13.016;2023-08-20T02:48:17;9.97;;;3.17;;
419;SDS011;42600;54.408;13.016;2023-08-20T02:50:44;7.23;;;2.57;;
419;SDS011;42600;54.408;13.016;2023-08-20T02:53:11;8.07;;;2.87;;
419;SDS011;42600;54.408;13.016;2023-08-20T02:55:39;6.27;;;3.00;;
419;SDS011;42600;54.408;13.016;2023-08-20T02:58:06;2.93;;;1.93;;
419;SDS011;42600;54.408;13.016;2023-08-20T03:00:34;7.60;;;2.30;;
419;SDS011;42600;54.408;13.016;2023-08-20T03:03:01;5.33;;;2.07;;
419;SDS011;42600;54.408;13.016;2023-08-20T03:05:30;6.93;;;3.03;;
419;SDS011;42600;54.408;13.016;2023-08-20T03:07:57;4.70;;;2.37;;
419;SDS011;42600;54.408;13.016;2023-08-20T03:10:23;2.77;;;1.47;;
419;SDS011;42600;54.408;13.016;2023-08-20T03:12:51;5.27;;;2.17;;
419;SDS011;42600;54.408;13.016;2023-08-20T03:15:18;4.07;;;2.00;;
419;SDS011;42600;54.408;13.016;2023-08-20T03:17:45;4.50;;;1.73;;
419;SDS011;42600;54.408;13.016;2023-08-20T03:20:12;5.37;;;2.30;;
419;SDS011;42600;54.408;13.016;2023-08-20T03:22:38;13.40;;;3.20;;
419;SDS011;42600;54.408;13.016;2023-08-20T03:25:05;9.47;;;2.77;;
419;SDS011;42600;54.408;13.016;2023-08-20T03:27:32;4.17;;;3.40;;
419;SDS011;42600;54.408;13.016;2023-08-20T03:30:00;2.80;;;1.63;;
419;SDS011;42600;54.408;13.016;2023-08-20T03:32:27;5.43;;;2.70;;
419;SDS011;42600;54.408;13.016;2023-08-20T03:34:54;10.20;;;4.00;;
419;SDS011;42600;54.408;13.016;2023-08-20T03:37:21;4.33;;;1.90;;
419;SDS011;42600;54.408;13.016;2023-08-20T03:39:47;5.33;;;2.90;;
419;SDS011;42600;54.408;13.016;2023-08-20T03:42:14;8.20;;;2.53;;
419;SDS011;42600;54.408;13.016;2023-08-20T03:44:41;14.77;;;3.47;;
419;SDS011;42600;54.408;13.016;2023-08-20T03:47:08;10.00;;;3.80;;
419;SDS011;42600;54.408;13.016;2023-08-20T03:49:35;8.10;;;2.43;;
419;SDS011;42600;54.408;13.016;2023-08-20T03:52:02;6.80;;;3.73;;
419;SDS011;42600;54.408;13.016;2023-08-20T03:54:29;6.80;;;3.33;;
419;SDS011;42600;54.408;13.016;2023-08-20T03:56:55;8.27;;;3.37;;
419;SDS011;42600;54.408;13.016;2023-08-20T03:59:22;3.70;;;2.47;;
419;SDS011;42600;54.408;13.016;2023-08-20T04:01:49;11.55;;;3.65;;
419;SDS011;42600;54.408;13.016;2023-08-20T04:04:16;14.20;;;3.00;;
419;SDS011;42600;54.408;13.016;2023-08-20T04:06:43;13.47;;;6.17;;
419;SDS011;42600;54.408;13.016;2023-08-20T04:09:10;6.87;;;3.27;;
419;SDS011;42600;54.408;13.016;2023-08-20T04:11:36;6.20;;;2.90;;
419;SDS011;42600;54.408;13.016;2023-08-20T04:14:03;12.67;;;5.17;;
419;SDS011;42600;54.408;13.016;2023-08-20T04:16:29;5.90;;;2.90;;
419;SDS011;42600;54.408;13.016;2023-08-20T04:18:56;10.83;;;3.20;;
419;SDS011;42600;54.408;13.016;2023-08-20T04:21:24;9.90;;;2.77;;
419;SDS011;42600;54.408;13.016;2023-08-20T04:23:51;10.77;;;5.30;;
419;SDS011;42600;54.408;13.016;2023-08-20T04:26:17;5.77;;;3.00;;
419;SDS011;42600;54.408;13.016;2023-08-20T04:28:44;7.40;;;3.33;;
419;SDS011;42600;54.408;13.016;2023-08-20T04:31:10;9.17;;;3.27;;
419;SDS011;42600;54.408;13.016;2023-08-20T04:33:37;5.30;;;1.80;;
419;SDS011;42600;54.408;13.016;2023-08-20T04:36:04;10.43;;;3.50;;
419;SDS011;42600;54.408;13.016;2023-08-20T04:38:32;8.50;;;4.30;;
419;SDS011;42600;54.408;13.016;2023-08-20T04:40:58;8.67;;;4.33;;
419;SDS011;42600;54.408;13.016;2023-08-20T04:43:25;8.13;;;3.70;;
419;SDS011;42600;54.408;13.016;2023-08-20T04:45:51;5.37;;;2.47;;
419;SDS011;42600;54.408;13.016;2023-08-20T04:48:18;6.20;;;3.20;;
419;SDS011;42600;54.408;13.016;2023-08-20T04:50:45;8.40;;;2.80;;
419;SDS011;42600;54.408;13.016;2023-08-20T04:53:12;13.03;;;4.90;;
419;SDS011;42600;54.408;13.016;2023-08-20T04:55:40;19.10;;;5.07;;
419;SDS011;42600;54.408;13.016;2023-08-20T04:58:07;10.10;;;5.00;;
419;SDS011;42600;54.408;13.016;2023-08-20T05:00:34;8.70;;;3.23;;
419;SDS011;42600;54.408;13.016;2023-08-20T05:03:01;12.33;;;4.60;;
419;SDS011;42600;54.408;13.016;2023-08-20T05:05:27;12.47;;;4.40;;
419;SDS011;42600;54.408;13.016;2023-08-20T05:07:54;12.73;;;4.63;;
419;SDS011;42600;54.408;13.016;2023-08-20T05:10:20;11.80;;;5.93;;
419;SDS011;42600;54.408;13.016;2023-08-20T05:12:48;13.77;;;4.30;;
419;SDS011;42600;54.408;13.016;2023-08-20T05:15:15;15.50;;;7.70;;
419;SDS011;42600;54.408;13.016;2023-08-20T05:17:41;8.73;;;4.03;;
419;SDS011;42600;54.408;13.016;2023-08-20T05:20:08;24.37;;;6.47;;
419;SDS011;42600;54.408;13.016;2023-08-20T05:22:36;9.50;;;4.67;;
419;SDS011;42600;54.408;13.016;2023-08-20T05:25:02;10.60;;;4.03;;
419;SDS011;42600;54.408;13.016;2023-08-20T05:27:29;18.97;;;4.30;;
419;SDS011;42600;54.408;13.016;2023-08-20T05:29:57;12.27;;;5.07;;
419;SDS011;42600;54.408;13.016;2023-08-20T05:32:24;18.30;;;7.80;;
419;SDS011;42600;54.408;13.016;2023-08-20T05:34:50;10.50;;;3.40;;
419;SDS011;42600;54.408;13.016;2023-08-20T05:37:17;17.97;;;6.13;;
419;SDS011;42600;54.408;13.016;2023-08-20T05:39:44;20.50;;;4.47;;
419;SDS011;42600;54.408;13.016;2023-08-20T05:42:10;31.60;;;10.00;;
419;SDS011;42600;54.408;13.016;2023-08-20T05:44:37;19.17;;;7.60;;
419;SDS011;42600;54.408;13.016;2023-08-20T05:47:05;9.43;;;3.60;;
419;SDS011;42600;54.408;13.016;2023-08-20T05:49:32;22.10;;;7.77;;
419;SDS011;42600;54.408;13.016;2023-08-20T05:51:58;17.63;;;4.90;;
419;SDS011;42600;54.408;13.016;2023-08-20T05:54:25;18.20;;;5.87;;
419;SDS011;42600;54.408;13.016;2023-08-20T05:56:51;11.13;;;6.20;;
419;SDS011;42600;54.408;13.016;2023-08-20T05:59:18;23.00;;;7.23;;
419;SDS011;42600;54.408;13.016;2023-08-20T06:01:45;11.47;;;4.13;;
419;SDS011;42600;54.408;13.016;2023-08-20T06:04:13;19.70;;;8.10;;
419;SDS011;42600;54.408;13.016;2023-08-20T06:06:40;8.10;;;4.03;;
419;SDS011;42600;54.408;13.016;2023-08-20T06:09:06;22.33;;;8.50;;
419;SDS011;42600;54.408;13.016;2023-08-20T06:11:33;14.63;;;6.80;;
419;SDS011;42600;54.408;13.016;2023-08-20T06:13:59;13.10;;;6.80;;
419;SDS011;42600;54.408;13.016;2023-08-20T06:16:26;12.90;;;5.30;;
419;SDS011;42600;54.408;13.016;2023-08-20T06:18:53;7.20;;;3.77;;
419;SDS011;42600;54.408;13.016;2023-08-20T06:21:21;19.27;;;8.30;;
419;SDS011;42600;54.408;13.016;2023-08-20T06:23:48;25.93;;;8.13;;
419;SDS011;42600;54.408;13.016;2023-08-20T06:26:14;25.93;;;7.40;;
419;SDS011;42600;54.408;13.016;2023-08-20T06:28:41;21.90;;;7.60;;
419;SDS011;42600;54.408;13.016;2023-08-20T06:31:07;24.00;;;7.37;;
419;SDS011;42600;54.408;13.016;2023-08-20T06:33:34;10.70;;;4.77;;
419;SDS011;42600;54.408;13.016;2023-08-20T06:36:01;15.50;;;6.43;;
419;SDS011;42600;54.408;13.016;2023-08-20T06:38:29;19.70;;;5.90;;
419;SDS011;42600;54.408;13.016;2023-08-20T06:40:55;23.57;;;7.87;;
419;SDS011;42600;54.408;13.016;2023-08-20T06:43:22;32.30;;;10.00;;
419;SDS011;42600;54.408;13.016;2023-08-20T06:45:49;28.00;;;7.80;;
419;SDS011;42600;54.408;13.016;2023-08-20T06:48:15;20.47;;;7.37;;
419;SDS011;42600;54.408;13.016;2023-08-20T06:50:44;23.50;;;5.47;;
419;SDS011;42600;54.408;13.016;2023-08-20T06:53:11;34.90;;;10.70;;
419;SDS011;42600;54.408;13.016;2023-08-20T06:55:39;18.03;;;7.10;;
419;SDS011;42600;54.408;13.016;2023-08-20T06:58:06;21.83;;;7.27;;
419;SDS011;42600;54.408;13.016;2023-08-20T07:00:32;18.97;;;6.43;;
419;SDS011;42600;54.408;13.016;2023-08-20T07:02:59;25.27;;;6.40;;
419;SDS011;42600;54.408;13.016;2023-08-20T07:05:26;25.90;;;6.90;;
419;SDS011;42600;54.408;13.016;2023-08-20T07:07:52;22.63;;;8.60;;
419;SDS011;42600;54.408;13.016;2023-08-20T07:10:19;30.27;;;6.50;;
419;SDS011;42600;54.408;13.016;2023-08-20T07:12:47;22.93;;;8.67;;
419;SDS011;42600;54.408;13.016;2023-08-20T07:15:14;12.30;;;4.80;;
419;SDS011;42600;54.408;13.016;2023-08-20T07:17:40;24.80;;;7.47;;
419;SDS011;42600;54.408;13.016;2023-08-20T07:20:07;13.03;;;5.00;;
419;SDS011;42600;54.408;13.016;2023-08-20T07:22:34;22.43;;;5.30;;
419;SDS011;42600;54.408;13.016;2023-08-20T07:25:00;20.87;;;5.93;;
419;SDS011;42600;54.408;13.016;2023-08-20T07:27:27;16.90;;;7.40;;
419;SDS011;42600;54.408;13.016;2023-08-20T07:29:55;15.57;;;6.83;;
419;SDS011;42600;54.408;13.016;2023-08-20T07:32:21;15.53;;;5.47;;
419;SDS011;42600;54.408;13.016;2023-08-20T07:34:48;16.60;;;4.80;;
419;SDS011;42600;54.408;13.016;2023-08-20T07:37:15;23.77;;;4.53;;
419;SDS011;42600;54.408;13.016;2023-08-20T07:39:41;23.73;;;7.27;;
419;SDS011;42600;54.408;13.016;2023-08-20T07:42:08;9.47;;;4.50;;
419;SDS011;42600;54.408;13.016;2023-08-20T07:44:35;17.67;;;5.33;;
419;SDS011;42600;54.408;13.016;2023-08-20T07:47:03;9.73;;;3.27;;
419;SDS011;42600;54.408;13.016;2023-08-20T07:49:30;8.73;;;3.27;;
419;SDS011;42600;54.408;13.016;2023-08-20T07:51:57;16.43;;;4.80;;
419;SDS011;42600;54.408;13.016;2023-08-20T07:54:23;13.40;;;4.97;;
419;SDS011;42600;54.408;13.016;2023-08-20T07:56:50;14.93;;;4.07;;
419;SDS011;42600;54.408;13.016;2023-08-20T07:59:16;7.70;;;3.30;;
419;SDS011;42600;54.408;13.016;2023-08-20T08:01:43;7.43;;;3.23;;
419;SDS011;42600;54.408;13.016;2023-08-20T08:04:11;6.40;;;3.90;;
419;SDS011;42600;54.408;13.016;2023-08-20T08:06:37;11.27;;;4.80;;
419;SDS011;42600;54.408;13.016;2023-08-20T08:09:20;9.00;;;4.33;;
419;SDS011;42600;54.408;13.016;2023-08-20T08:11:47;12.87;;;4.83;;
419;SDS011;42600;54.408;13.016;2023-08-20T08:14:14;13.07;;;3.90;;
419;SDS011;42600;54.408;13.016;2023-08-20T08:16:41;11.23;;;3.50;;
419;SDS011;42600;54.408;13.016;2023-08-20T08:19:07;9.03;;;2.63;;
419;SDS011;42600;54.408;13.016;2023-08-20T08:21:35;9.73;;;2.90;;
419;SDS011;42600;54.408;13.016;2023-08-20T08:24:02;5.00;;;2.27;;
419;SDS011;42600;54.408;13.016;2023-08-20T08:26:30;12.80;;;4.00;;
419;SDS011;42600;54.408;13.016;2023-08-20T08:28:56;9.30;;;4.20;;
419;SDS011;42600;54.408;13.016;2023-08-20T08:31:23;4.13;;;2.77;;
419;SDS011;42600;54.408;13.016;2023-08-20T08:33:50;4.40;;;2.33;;
419;SDS011;42600;54.408;13.016;2023-08-20T08:36:16;3.77;;;2.00;;
419;SDS011;42600;54.408;13.016;2023-08-20T08:38:44;10.87;;;2.73;;
419;SDS011;42600;54.408;13.016;2023-08-20T08:41:12;6.63;;;3.03;;
419;SDS011;42600;54.408;13.016;2023-08-20T08:43:39;5.23;;;2.50;;
419;SDS011;42600;54.408;13.016;2023-08-20T08:46:07;4.73;;;2.27;;
419;SDS011;42600;54.408;13.016;2023-08-20T08:48:37;5.40;;;2.27;;
419;SDS011;42600;54.408;13.016;2023-08-20T08:51:07;7.53;;;2.63;;
419;SDS011;42600;54.408;13.016;2023-08-20T08:53:33;4.87;;;2.07;;
419;SDS011;42600;54.408;13.016;2023-08-20T08:56:03;5.57;;;2.50;;
419;SDS011;42600;54.408;13.016;2023-08-20T08:58:32;9.33;;;2.60;;
419;SDS011;42600;54.408;13.016;2023-08-20T09:00:59;9.13;;;2.63;;
419;SDS011;42600;54.408;13.016;2023-08-20T09:03:25;8.80;;;2.60;;
419;SDS011;42600;54.408;13.016;2023-08-20T09:05:54;13.73;;;3.20;;
419;SDS011;42600;54.408;13.016;2023-08-20T09:08:22;4.97;;;1.97;;
419;SDS011;42600;54.408;13.016;2023-08-20T09:10:52;3.73;;;2.70;;
419;SDS011;42600;54.408;13.016;2023-08-20T09:13:25;3.77;;;2.00;;
419;SDS011;42600;54.408;13.016;2023-08-20T09:15:59;5.07;;;1.97;;
419;SDS011;42600;54.408;13.016;2023-08-20T09:18:29;10.73;;;3.07;;
419;SDS011;42600;54.408;13.016;2023-08-20T09:20:56;8.50;;;3.90;;
419;SDS011;42600;54.408;13.016;2023-08-20T09:23:23;5.93;;;2.67;;
419;SDS011;42600;54.408;13.016;2023-08-20T09:25:52;5.57;;;2.20;;
419;SDS011;42600;54.408;13.016;2023-08-20T09:28:19;8.90;;;2.87;;
419;SDS011;42600;54.408;13.016;2023-08-20T09:30:58;5.97;;;2.30;;
419;SDS011;42600;54.408;13.016;2023-08-20T09:33:27;2.63;;;1.77;;
419;SDS011;42600;54.408;13.016;2023-08-20T09:35:54;6.37;;;2.10;;
419;SDS011;42600;54.408;13.016;2023-08-20T09:38:21;7.03;;;2.40;;
419;SDS011;42600;54.408;13.016;2023-08-20T09:40:49;3.60;;;2.30;;
419;SDS011;42600;54.408;13.016;2023-08-20T09:43:18;6.40;;;2.20;;
419;SDS011;42600;54.408;13.016;2023-08-20T09:45:46;5.80;;;2.87;;
419;SDS011;42600;54.408;13.016;2023-08-20T09:48:14;5.13;;;3.20;;
419;SDS011;42600;54.408;13.016;2023-08-20T09:50:44;9.37;;;2.20;;
419;SDS011;42600;54.408;13.016;2023-08-20T09:53:16;10.07;;;2.20;;
419;SDS011;42600;54.408;13.016;2023-08-20T09:55:47;9.50;;;2.10;;
419;SDS011;42600;54.408;13.016;2023-08-20T09:58:16;6.87;;;2.10;;
419;SDS011;42600;54.408;13.016;2023-08-20T10:00:46;6.40;;;2.10;;
419;SDS011;42600;54.408;13.016;2023-08-20T10:03:15;3.60;;;1.93;;
419;SDS011;42600;54.408;13.016;2023-08-20T10:05:42;4.10;;;2.27;;
419;SDS011;42600;54.408;13.016;2023-08-20T10:08:09;5.07;;;1.80;;
419;SDS011;42600;54.408;13.016;2023-08-20T10:10:38;3.73;;;1.60;;
419;SDS011;42600;54.408;13.016;2023-08-20T10:13:04;7.93;;;1.90;;
419;SDS011;42600;54.408;13.016;2023-08-20T10:15:31;7.43;;;2.40;;
419;SDS011;42600;54.408;13.016;2023-08-20T10:18:01;4.10;;;2.00;;
419;SDS011;42600;54.408;13.016;2023-08-20T10:20:29;3.63;;;2.40;;
419;SDS011;42600;54.408;13.016;2023-08-20T10:23:00;4.70;;;1.73;;
419;SDS011;42600;54.408;13.016;2023-08-20T10:25:29;8.37;;;2.90;;
419;SDS011;42600;54.408;13.016;2023-08-20T10:28:10;7.50;;;1.80;;
419;SDS011;42600;54.408;13.016;2023-08-20T10:30:38;3.00;;;1.33;;
419;SDS011;42600;54.408;13.016;2023-08-20T10:33:04;7.10;;;2.30;;
419;SDS011;42600;54.408;13.016;2023-08-20T10:35:47;3.13;;;1.60;;
419;SDS011;42600;54.408;13.016;2023-08-20T10:38:15;10.67;;;3.00;;
419;SDS011;42600;54.408;13.016;2023-08-20T10:40:46;6.23;;;2.10;;
419;SDS011;42600;54.408;13.016;2023-08-20T10:43:23;5.73;;;2.10;;
419;SDS011;42600;54.408;13.016;2023-08-20T10:46:01;5.10;;;1.80;;
419;SDS011;42600;54.408;13.016;2023-08-20T10:48:29;4.33;;;2.30;;
419;SDS011;42600;54.408;13.016;2023-08-20T10:50:57;3.67;;;1.80;;
419;SDS011;42600;54.408;13.016;2023-08-20T10:53:25;7.10;;;2.07;;
419;SDS011;42600;54.408;13.016;2023-08-20T10:55:51;4.23;;;2.40;;
419;SDS011;42600;54.408;13.016;2023-08-20T10:58:18;3.90;;;2.27;;
419;SDS011;42600;54.408;13.016;2023-08-20T11:03:45;3.80;;;2.10;;
419;SDS011;42600;54.408;13.016;2023-08-20T11:06:15;8.23;;;1.90;;
419;SDS011;42600;54.408;13.016;2023-08-20T11:08:42;3.70;;;1.93;;
419;SDS011;42600;54.408;13.016;2023-08-20T11:11:10;3.63;;;1.70;;
419;SDS011;42600;54.408;13.016;2023-08-20T11:13:38;8.53;;;2.17;;
419;SDS011;42600;54.408;13.016;2023-08-20T11:16:05;5.27;;;2.30;;
419;SDS011;42600;54.408;13.016;2023-08-20T11:18:33;5.77;;;1.60;;
419;SDS011;42600;54.408;13.016;2023-08-20T11:21:00;3.07;;;1.37;;
419;SDS011;42600;54.408;13.016;2023-08-20T11:23:29;4.73;;;1.73;;
419;SDS011;42600;54.408;13.016;2023-08-20T11:25:56;6.97;;;2.40;;
419;SDS011;42600;54.408;13.016;2023-08-20T11:28:24;9.03;;;2.33;;
419;SDS011;42600;54.408;13.016;2023-08-20T11:30:52;5.07;;;1.60;;
419;SDS011;42600;54.408;13.016;2023-08-20T11:33:19;4.77;;;1.60;;
419;SDS011;42600;54.408;13.016;2023-08-20T11:35:46;5.60;;;1.60;;
419;SDS011;42600;54.408;13.016;2023-08-20T11:38:13;16.90;;;2.60;;
419;SDS011;42600;54.408;13.016;2023-08-20T11:40:41;2.27;;;1.83;;
419;SDS011;42600;54.408;13.016;2023-08-20T11:43:08;3.17;;;1.80;;
419;SDS011;42600;54.408;13.016;2023-08-20T11:45:43;4.80;;;1.73;;
419;SDS011;42600;54.408;13.016;2023-08-20T11:48:10;4.40;;;1.40;;
419;SDS011;42600;54.408;13.016;2023-08-20T11:50:37;6.03;;;2.17;;
419;SDS011;42600;54.408;13.016;2023-08-20T11:53:03;4.33;;;1.80;;
419;SDS011;42600;54.408;13.016;2023-08-20T11:55:30;3.37;;;1.63;;
419;SDS011;42600;54.408;13.016;2023-08-20T11:57:58;6.13;;;1.60;;
419;SDS011;42600;54.408;13.016;2023-08-20T12:00:25;6.10;;;2.07;;
419;SDS011;42600;54.408;13.016;2023-08-20T12:02:52;3.37;;;1.37;;
419;SDS011;42600;54.408;13.016;2023-08-20T12:05:19;4.20;;;1.50;;
419;SDS011;42600;54.408;13.016;2023-08-20T12:07:54;4.67;;;1.47;;
419;SDS011;42600;54.408;13.016;2023-08-20T12:10:22;2.90;;;1.53;;
419;SDS011;42600;54.408;13.016;2023-08-20T12:12:49;9.93;;;1.67;;
419;SDS011;42600;54.408;13.016;2023-08-20T12:15:17;1.60;;;0.90;;
419;SDS011;42600;54.408;13.016;2023-08-20T12:17:54;6.10;;;2.03;;
419;SDS011;42600;54.408;13.016;2023-08-20T12:20:26;1.93;;;1.50;;
419;SDS011;42600;54.408;13.016;2023-08-20T12:22:53;10.97;;;1.67;;
419;SDS011;42600;54.408;13.016;2023-08-20T12:25:20;3.63;;;1.67;;
419;SDS011;42600;54.408;13.016;2023-08-20T12:27:46;2.70;;;1.50;;
419;SDS011;42600;54.408;13.016;2023-08-20T12:30:13;3.30;;;1.40;;
419;SDS011;42600;54.408;13.016;2023-08-20T12:32:41;6.23;;;1.87;;
419;SDS011;42600;54.408;13.016;2023-08-20T12:35:08;2.23;;;1.60;;
419;SDS011;42600;54.408;13.016;2023-08-20T12:37:35;2.40;;;1.57;;
419;SDS011;42600;54.408;13.016;2023-08-20T12:40:01;4.53;;;1.70;;
419;SDS011;42600;54.408;13.016;2023-08-20T12:42:32;2.20;;;1.40;;
419;SDS011;42600;54.408;13.016;2023-08-20T12:44:59;6.83;;;1.90;;
419;SDS011;42600;54.408;13.016;2023-08-20T12:47:26;3.03;;;1.90;;
419;SDS011;42600;54.408;13.016;2023-08-20T12:49:54;3.30;;;1.77;;
419;SDS011;42600;54.408;13.016;2023-08-20T12:52:20;3.93;;;1.67;;
419;SDS011;42600;54.408;13.016;2023-08-20T12:54:47;3.03;;;1.40;;
419;SDS011;42600;54.408;13.016;2023-08-20T12:57:13;6.43;;;1.57;;
419;SDS011;42600;54.408;13.016;2023-08-20T12:59:40;5.27;;;1.77;;
419;SDS011;42600;54.408;13.016;2023-08-20T13:02:07;6.13;;;1.80;;
419;SDS011;42600;54.408;13.016;2023-08-20T13:04:34;2.40;;;1.30;;
419;SDS011;42600;54.408;13.016;2023-08-20T13:07:03;3.03;;;1.50;;
419;SDS011;42600;54.408;13.016;2023-08-20T13:09:30;3.97;;;1.10;;
419;SDS011;42600;54.408;13.016;2023-08-20T13:11:57;5.40;;;1.60;;
419;SDS011;42600;54.408;13.016;2023-08-20T13:14:28;3.77;;;1.23;;
419;SDS011;42600;54.408;13.016;2023-08-20T13:16:56;8.10;;;1.90;;
419;SDS011;42600;54.408;13.016;2023-08-20T13:19:22;7.37;;;2.10;;
419;SDS011;42600;54.408;13.016;2023-08-20T13:21:49;6.30;;;1.83;;
419;SDS011;42600;54.408;13.016;2023-08-20T13:24:17;13.23;;;2.43;;
419;SDS011;42600;54.408;13.016;2023-08-20T13:26:44;2.60;;;1.90;;
419;SDS011;42600;54.408;13.016;2023-08-20T13:29:10;1.90;;;1.07;;
419;SDS011;42600;54.408;13.016;2023-08-20T13:31:37;10.30;;;1.60;;
419;SDS011;42600;54.408;13.016;2023-08-20T13:34:04;2.00;;;0.97;;
419;SDS011;42600;54.408;13.016;2023-08-20T13:36:30;2.67;;;0.97;;
419;SDS011;42600;54.408;13.016;2023-08-20T13:38:57;2.43;;;1.10;;
419;SDS011;42600;54.408;13.016;2023-08-20T13:41:25;4.80;;;2.50;;
419;SDS011;42600;54.408;13.016;2023-08-20T13:43:51;8.30;;;2.37;;
419;SDS011;42600;54.408;13.016;2023-08-20T13:46:18;6.33;;;2.60;;
419;SDS011;42600;54.408;13.016;2023-08-20T13:48:44;3.30;;;1.60;;
419;SDS011;42600;54.408;13.016;2023-08-20T13:51:11;3.17;;;1.80;;
419;SDS011;42600;54.408;13.016;2023-08-20T13:53:38;5.10;;;1.70;;
419;SDS011;42600;54.408;13.016;2023-08-20T13:56:04;5.63;;;1.97;;
419;SDS011;42600;54.408;13.016;2023-08-20T13:58:32;10.30;;;1.60;;
419;SDS011;42600;54.408;13.016;2023-08-20T14:00:59;2.23;;;1.00;;
419;SDS011;42600;54.408;13.016;2023-08-20T14:03:26;6.87;;;1.70;;
419;SDS011;42600;54.408;13.016;2023-08-20T14:05:52;5.40;;;1.80;;
419;SDS011;42600;54.408;13.016;2023-08-20T14:08:19;1.90;;;1.67;;
419;SDS011;42600;54.408;13.016;2023-08-20T14:10:46;3.47;;;1.80;;
419;SDS011;42600;54.408;13.016;2023-08-20T14:13:13;1.93;;;1.13;;
419;SDS011;42600;54.408;13.016;2023-08-20T14:15:40;3.23;;;1.70;;
419;SDS011;42600;54.408;13.016;2023-08-20T14:18:07;3.03;;;1.80;;
419;SDS011;42600;54.408;13.016;2023-08-20T14:20:34;6.13;;;1.33;;
419;SDS011;42600;54.408;13.016;2023-08-20T14:23:00;4.10;;;1.57;;
419;SDS011;42600;54.408;13.016;2023-08-20T14:25:27;4.13;;;1.57;;
419;SDS011;42600;54.408;13.016;2023-08-20T14:27:53;4.93;;;1.20;;
419;SDS011;42600;54.408;13.016;2023-08-20T14:30:20;4.67;;;1.93;;
419;SDS011;42600;54.408;13.016;2023-08-20T14:32:48;3.53;;;1.70;;
419;SDS011;42600;54.408;13.016;2023-08-20T14:35:15;2.90;;;1.57;;
419;SDS011;42600;54.408;13.016;2023-08-20T14:37:41;7.27;;;1.27;;
419;SDS011;42600;54.408;13.016;2023-08-20T14:40:08;2.13;;;1.00;;
419;SDS011;42600;54.408;13.016;2023-08-20T14:42:36;9.43;;;1.43;;
419;SDS011;42600;54.408;13.016;2023-08-20T14:45:03;6.70;;;1.63;;
419;SDS011;42600;54.408;13.016;2023-08-20T14:47:30;2.97;;;1.13;;
419;SDS011;42600;54.408;13.016;2023-08-20T14:49:58;3.73;;;1.47;;
419;SDS011;42600;54.408;13.016;2023-08-20T14:52:25;3.10;;;2.00;;
419;SDS011;42600;54.408;13.016;2023-08-20T14:54:51;3.97;;;1.63;;
419;SDS011;42600;54.408;13.016;2023-08-20T14:57:18;1.30;;;0.80;;
419;SDS011;42600;54.408;13.016;2023-08-20T14:59:45;5.47;;;1.77;;
419;SDS011;42600;54.408;13.016;2023-08-20T15:02:11;12.53;;;1.47;;
419;SDS011;42600;54.408;13.016;2023-08-20T15:04:38;7.07;;;2.23;;